sensor_id;sensor_type;location;lat;lon;timestamp;temperature;humidity
1468;DHT22;727;48.892;9.544;2023-05-10T00:00:41;14.20;99.90
1468;DHT22;727;48.892;9.544;2023-05-10T00:03:08;14.20;99.90
1468;DHT22;727;48.892;9.544;2023-05-10T00:05:35;14.20;99.90
1468;DHT22;727;48.892;9.544;2023-05-10T00:08:02;14.20;99.90
1468;DHT22;727;48.892;9.544;2023-05-10T00:10:30;14.20;99.90
1468;DHT22;727;48.892;9.544;2023-05-10T00:12:57;14.20;99.90
1468;DHT22;727;48.892;9.544;2023-05-10T00:15:23;14.20;99.90
1468;DHT22;727;48.892;9.544;2023-05-10T00:17:50;14.10;99.90
1468;DHT22;727;48.892;9.544;2023-05-10T00:20:17;14.10;99.90
1468;DHT22;727;48.892;9.544;2023-05-10T00:22:44;14.10;99.90
1468;DHT22;727;48.892;9.544;2023-05-10T00:25:10;14.20;99.90
1468;DHT22;727;48.892;9.544;2023-05-10T00:27:41;14.10;99.90
1468;DHT22;727;48.892;9.544;2023-05-10T00:30:08;14.10;99.90
1468;DHT22;727;48.892;9.544;2023-05-10T00:32:35;14.10;99.90
1468;DHT22;727;48.892;9.544;2023-05-10T00:35:02;14.00;99.90
1468;DHT22;727;48.892;9.544;2023-05-10T00:37:29;14.00;99.90
1468;DHT22;727;48.892;9.544;2023-05-10T00:39:55;14.00;99.90
1468;DHT22;727;48.892;9.544;2023-05-10T00:42:22;14.00;99.90
1468;DHT22;727;48.892;9.544;2023-05-10T00:44:50;14.00;99.90
1468;DHT22;727;48.892;9.544;2023-05-10T00:47:17;14.00;99.90
1468;DHT22;727;48.892;9.544;2023-05-10T00:49:44;14.00;99.90
1468;DHT22;727;48.892;9.544;2023-05-10T00:52:12;13.90;99.90
1468;DHT22;727;48.892;9.544;2023-05-10T00:54:39;13.90;99.90
1468;DHT22;727;48.892;9.544;2023-05-10T00:57:06;13.90;99.90
1468;DHT22;727;48.892;9.544;2023-05-10T00:59:33;13.90;99.90
1468;DHT22;727;48.892;9.544;2023-05-10T01:02:01;13.80;99.90
1468;DHT22;727;48.892;9.544;2023-05-10T01:04:28;13.80;99.90
1468;DHT22;727;48.892;9.544;2023-05-10T01:06:55;13.70;99.90
1468;DHT22;727;48.892;9.544;2023-05-10T01:09:22;13.70;99.90
1468;DHT22;727;48.892;9.544;2023-05-10T01:11:52;13.60;99.90
1468;DHT22;727;48.892;9.544;2023-05-10T01:14:19;13.60;99.90
1468;DHT22;727;48.892;9.544;2023-05-10T01:16:48;13.60;99.90
1468;DHT22;727;48.892;9.544;2023-05-10T01:19:22;13.60;99.90
1468;DHT22;727;48.892;9.544;2023-05-10T01:21:53;13.60;99.90
1468;DHT22;727;48.892;9.544;2023-05-10T01:24:46;13.60;99.90
1468;DHT22;727;48.892;9.544;2023-05-10T01:27:55;13.60;99.90
1468;DHT22;727;48.892;9.544;2023-05-10T01:30:47;13.50;99.90
1468;DHT22;727;48.892;9.544;2023-05-10T01:33:21;13.50;99.90
1468;DHT22;727;48.892;9.544;2023-05-10T01:35:55;13.40;99.90
1468;DHT22;727;48.892;9.544;2023-05-10T01:38:27;13.40;99.90
1468;DHT22;727;48.892;9.544;2023-05-10T01:41:05;13.40;99.90
1468;DHT22;727;48.892;9.544;2023-05-10T01:43:41;13.40;99.90
1468;DHT22;727;48.892;9.544;2023-05-10T01:46:13;13.30;99.90
1468;DHT22;727;48.892;9.544;2023-05-10T01:48:47;13.30;99.90
1468;DHT22;727;48.892;9.544;2023-05-10T01:51:23;13.30;99.90
1468;DHT22;727;48.892;9.544;2023-05-10T01:53:56;13.30;99.90
1468;DHT22;727;48.892;9.544;2023-05-10T01:56:25;13.30;99.90
1468;DHT22;727;48.892;9.544;2023-05-10T01:58:53;13.30;99.90
1468;DHT22;727;48.892;9.544;2023-05-10T02:01:21;13.30;99.90
1468;DHT22;727;48.892;9.544;2023-05-10T02:03:51;13.30;99.90
1468;DHT22;727;48.892;9.544;2023-05-10T02:06:18;13.30;99.90
1468;DHT22;727;48.892;9.544;2023-05-10T02:08:49;13.30;99.90
1468;DHT22;727;48.892;9.544;2023-05-10T02:11:17;13.20;99.90
1468;DHT22;727;48.892;9.544;2023-05-10T02:13:47;13.30;99.90
1468;DHT22;727;48.892;9.544;2023-05-10T02:16:16;13.20;99.90
1468;DHT22;727;48.892;9.544;2023-05-10T02:18:45;13.30;99.90
1468;DHT22;727;48.892;9.544;2023-05-10T02:21:14;13.30;99.90
1468;DHT22;727;48.892;9.544;2023-05-10T02:23:43;13.30;99.90
1468;DHT22;727;48.892;9.544;2023-05-10T02:26:11;13.30;99.90
1468;DHT22;727;48.892;9.544;2023-05-10T02:28:43;13.30;99.90
1468;DHT22;727;48.892;9.544;2023-05-10T02:31:11;13.30;99.90
1468;DHT22;727;48.892;9.544;2023-05-10T02:33:39;13.30;99.90
1468;DHT22;727;48.892;9.544;2023-05-10T02:36:08;13.30;99.90
1468;DHT22;727;48.892;9.544;2023-05-10T02:38:40;13.20;99.90
1468;DHT22;727;48.892;9.544;2023-05-10T02:41:08;13.30;99.90
1468;DHT22;727;48.892;9.544;2023-05-10T02:43:37;13.30;99.90
1468;DHT22;727;48.892;9.544;2023-05-10T02:46:06;13.20;99.90
1468;DHT22;727;48.892;9.544;2023-05-10T02:48:33;13.20;99.90
1468;DHT22;727;48.892;9.544;2023-05-10T02:51:03;13.20;99.90
1468;DHT22;727;48.892;9.544;2023-05-10T02:53:32;13.20;99.90
1468;DHT22;727;48.892;9.544;2023-05-10T02:56:05;13.20;99.90
1468;DHT22;727;48.892;9.544;2023-05-10T02:58:34;13.10;99.90
1468;DHT22;727;48.892;9.544;2023-05-10T03:01:01;13.10;99.90
1468;DHT22;727;48.892;9.544;2023-05-10T03:03:28;13.10;99.90
1468;DHT22;727;48.892;9.544;2023-05-10T03:05:55;13.10;99.90
1468;DHT22;727;48.892;9.544;2023-05-10T03:08:23;13.10;99.90
1468;DHT22;727;48.892;9.544;2023-05-10T03:10:59;13.10;99.90
1468;DHT22;727;48.892;9.544;2023-05-10T03:13:34;13.20;99.90
1468;DHT22;727;48.892;9.544;2023-05-10T03:16:07;13.10;99.90
1468;DHT22;727;48.892;9.544;2023-05-10T03:18:40;13.10;99.90
1468;DHT22;727;48.892;9.544;2023-05-10T03:21:11;13.20;99.90
1468;DHT22;727;48.892;9.544;2023-05-10T03:23:41;13.20;99.90
1468;DHT22;727;48.892;9.544;2023-05-10T03:26:10;13.20;99.90
1468;DHT22;727;48.892;9.544;2023-05-10T03:28:42;13.20;99.90
1468;DHT22;727;48.892;9.544;2023-05-10T03:31:09;13.20;99.90
1468;DHT22;727;48.892;9.544;2023-05-10T03:33:45;13.20;99.90
1468;DHT22;727;48.892;9.544;2023-05-10T03:36:12;13.20;99.90
1468;DHT22;727;48.892;9.544;2023-05-10T03:38:39;13.20;99.90
1468;DHT22;727;48.892;9.544;2023-05-10T03:41:06;13.20;99.90
1468;DHT22;727;48.892;9.544;2023-05-10T03:43:33;13.20;99.90
1468;DHT22;727;48.892;9.544;2023-05-10T03:46:03;13.20;99.90
1468;DHT22;727;48.892;9.544;2023-05-10T03:48:30;13.20;99.90
1468;DHT22;727;48.892;9.544;2023-05-10T03:50:57;13.20;99.90
1468;DHT22;727;48.892;9.544;2023-05-10T03:53:24;13.20;99.90
1468;DHT22;727;48.892;9.544;2023-05-10T03:55:51;13.20;99.90
1468;DHT22;727;48.892;9.544;2023-05-10T04:01:00;13.20;99.90
1468;DHT22;727;48.892;9.544;2023-05-10T04:03:29;13.20;99.90
1468;DHT22;727;48.892;9.544;2023-05-10T04:08:35;13.20;99.90
1468;DHT22;727;48.892;9.544;2023-05-10T04:11:25;13.20;99.90
1468;DHT22;727;48.892;9.544;2023-05-10T04:14:18;13.20;99.90
1468;DHT22;727;48.892;9.544;2023-05-10T04:16:53;13.20;99.90
1468;DHT22;727;48.892;9.544;2023-05-10T04:20:14;13.20;99.90
1468;DHT22;727;48.892;9.544;2023-05-10T04:22:43;13.30;99.90
1468;DHT22;727;48.892;9.544;2023-05-10T04:25:12;13.30;99.90
1468;DHT22;727;48.892;9.544;2023-05-10T04:27:43;13.30;99.90
1468;DHT22;727;48.892;9.544;2023-05-10T04:30:11;13.40;99.90
1468;DHT22;727;48.892;9.544;2023-05-10T04:32:37;13.40;99.90
1468;DHT22;727;48.892;9.544;2023-05-10T04:35:05;13.40;99.90
1468;DHT22;727;48.892;9.544;2023-05-10T04:37:33;13.40;99.90
1468;DHT22;727;48.892;9.544;2023-05-10T04:40:00;13.50;99.90
1468;DHT22;727;48.892;9.544;2023-05-10T04:42:29;13.50;99.90
1468;DHT22;727;48.892;9.544;2023-05-10T04:44:55;13.60;99.90
1468;DHT22;727;48.892;9.544;2023-05-10T04:47:22;13.60;99.90
1468;DHT22;727;48.892;9.544;2023-05-10T04:49:49;13.70;99.90
1468;DHT22;727;48.892;9.544;2023-05-10T04:52:16;13.70;99.90
1468;DHT22;727;48.892;9.544;2023-05-10T04:54:44;13.80;99.90
1468;DHT22;727;48.892;9.544;2023-05-10T04:57:11;13.80;99.90
1468;DHT22;727;48.892;9.544;2023-05-10T04:59:38;13.80;99.90
1468;DHT22;727;48.892;9.544;2023-05-10T05:02:05;13.80;99.90
1468;DHT22;727;48.892;9.544;2023-05-10T05:04:31;13.90;99.90
1468;DHT22;727;48.892;9.544;2023-05-10T05:06:59;14.00;99.90
1468;DHT22;727;48.892;9.544;2023-05-10T05:09:26;14.00;99.90
1468;DHT22;727;48.892;9.544;2023-05-10T05:11:54;13.90;99.90
1468;DHT22;727;48.892;9.544;2023-05-10T05:14:21;13.90;99.90
1468;DHT22;727;48.892;9.544;2023-05-10T05:16:53;13.90;99.90
1468;DHT22;727;48.892;9.544;2023-05-10T05:19:21;14.00;99.90
1468;DHT22;727;48.892;9.544;2023-05-10T05:21:49;14.00;99.90
1468;DHT22;727;48.892;9.544;2023-05-10T05:24:16;13.90;99.90
1468;DHT22;727;48.892;9.544;2023-05-10T05:26:42;14.00;99.90
1468;DHT22;727;48.892;9.544;2023-05-10T05:29:11;14.00;99.90
1468;DHT22;727;48.892;9.544;2023-05-10T05:31:37;14.10;99.90
1468;DHT22;727;48.892;9.544;2023-05-10T05:34:04;14.20;99.90
1468;DHT22;727;48.892;9.544;2023-05-10T05:36:31;14.20;99.90
1468;DHT22;727;48.892;9.544;2023-05-10T05:38:58;14.30;99.90
1468;DHT22;727;48.892;9.544;2023-05-10T05:41:25;14.40;99.90
1468;DHT22;727;48.892;9.544;2023-05-10T05:43:51;14.40;99.90
1468;DHT22;727;48.892;9.544;2023-05-10T05:46:19;14.50;99.90
1468;DHT22;727;48.892;9.544;2023-05-10T05:48:46;14.50;99.90
1468;DHT22;727;48.892;9.544;2023-05-10T05:51:13;14.60;99.90
1468;DHT22;727;48.892;9.544;2023-05-10T05:53:40;14.60;99.90
1468;DHT22;727;48.892;9.544;2023-05-10T05:56:06;14.60;99.90
1468;DHT22;727;48.892;9.544;2023-05-10T05:58:34;14.60;99.90
1468;DHT22;727;48.892;9.544;2023-05-10T06:01:01;14.60;99.90
1468;DHT22;727;48.892;9.544;2023-05-10T06:03:29;14.60;99.90
1468;DHT22;727;48.892;9.544;2023-05-10T06:05:56;14.70;99.90
1468;DHT22;727;48.892;9.544;2023-05-10T06:08:23;14.80;99.90
1468;DHT22;727;48.892;9.544;2023-05-10T06:10:50;14.70;99.90
1468;DHT22;727;48.892;9.544;2023-05-10T06:13:16;14.80;99.90
1468;DHT22;727;48.892;9.544;2023-05-10T06:15:43;14.70;99.90
1468;DHT22;727;48.892;9.544;2023-05-10T06:18:10;14.80;99.90
1468;DHT22;727;48.892;9.544;2023-05-10T06:20:40;14.90;99.90
1468;DHT22;727;48.892;9.544;2023-05-10T06:23:07;14.90;99.90
1468;DHT22;727;48.892;9.544;2023-05-10T06:25:34;15.00;99.90
1468;DHT22;727;48.892;9.544;2023-05-10T06:28:01;15.00;99.90
1468;DHT22;727;48.892;9.544;2023-05-10T06:30:27;15.00;99.90
1468;DHT22;727;48.892;9.544;2023-05-10T06:32:54;15.10;99.90
1468;DHT22;727;48.892;9.544;2023-05-10T06:35:21;15.10;99.90
1468;DHT22;727;48.892;9.544;2023-05-10T06:37:50;15.00;99.90
1468;DHT22;727;48.892;9.544;2023-05-10T06:40:17;15.00;99.90
1468;DHT22;727;48.892;9.544;2023-05-10T06:42:44;15.00;99.90
1468;DHT22;727;48.892;9.544;2023-05-10T06:45:12;15.00;99.90
1468;DHT22;727;48.892;9.544;2023-05-10T06:47:39;15.10;99.90
1468;DHT22;727;48.892;9.544;2023-05-10T06:50:06;15.20;99.90
1468;DHT22;727;48.892;9.544;2023-05-10T06:52:33;15.30;99.90
1468;DHT22;727;48.892;9.544;2023-05-10T06:55:01;15.40;99.90
1468;DHT22;727;48.892;9.544;2023-05-10T06:57:29;15.50;99.90
1468;DHT22;727;48.892;9.544;2023-05-10T06:59:55;15.50;99.90
1468;DHT22;727;48.892;9.544;2023-05-10T07:02:22;15.60;99.90
1468;DHT22;727;48.892;9.544;2023-05-10T07:04:49;15.60;99.90
1468;DHT22;727;48.892;9.544;2023-05-10T07:07:17;15.70;99.90
1468;DHT22;727;48.892;9.544;2023-05-10T07:09:44;15.80;99.90
1468;DHT22;727;48.892;9.544;2023-05-10T07:12:13;15.80;99.90
1468;DHT22;727;48.892;9.544;2023-05-10T07:14:41;15.60;99.90
1468;DHT22;727;48.892;9.544;2023-05-10T07:17:07;15.50;99.90
1468;DHT22;727;48.892;9.544;2023-05-10T07:19:34;15.40;99.90
1468;DHT22;727;48.892;9.544;2023-05-10T07:22:01;15.20;99.90
1468;DHT22;727;48.892;9.544;2023-05-10T07:24:28;15.10;99.90
1468;DHT22;727;48.892;9.544;2023-05-10T07:26:55;15.10;99.90
1468;DHT22;727;48.892;9.544;2023-05-10T07:29:23;15.30;99.90
1468;DHT22;727;48.892;9.544;2023-05-10T07:31:50;15.60;99.90
1468;DHT22;727;48.892;9.544;2023-05-10T07:34:17;15.80;99.90
1468;DHT22;727;48.892;9.544;2023-05-10T07:36:44;16.10;99.90
1468;DHT22;727;48.892;9.544;2023-05-10T07:39:11;16.20;99.90
1468;DHT22;727;48.892;9.544;2023-05-10T07:41:37;16.40;99.90
1468;DHT22;727;48.892;9.544;2023-05-10T07:44:05;16.60;99.90
1468;DHT22;727;48.892;9.544;2023-05-10T07:46:33;16.70;99.90
1468;DHT22;727;48.892;9.544;2023-05-10T07:49:01;16.70;99.90
1468;DHT22;727;48.892;9.544;2023-05-10T07:51:27;16.60;99.90
1468;DHT22;727;48.892;9.544;2023-05-10T07:53:54;16.30;99.90
1468;DHT22;727;48.892;9.544;2023-05-10T07:56:24;16.30;99.90
1468;DHT22;727;48.892;9.544;2023-05-10T07:58:52;16.20;99.90
1468;DHT22;727;48.892;9.544;2023-05-10T08:01:19;16.20;99.90
1468;DHT22;727;48.892;9.544;2023-05-10T08:03:48;16.20;99.90
1468;DHT22;727;48.892;9.544;2023-05-10T08:06:19;16.20;99.90
1468;DHT22;727;48.892;9.544;2023-05-10T08:08:49;16.30;99.90
1468;DHT22;727;48.892;9.544;2023-05-10T08:11:16;16.30;99.90
1468;DHT22;727;48.892;9.544;2023-05-10T08:13:44;16.20;99.90
1468;DHT22;727;48.892;9.544;2023-05-10T08:16:11;16.10;99.90
1468;DHT22;727;48.892;9.544;2023-05-10T08:18:38;16.00;99.90
1468;DHT22;727;48.892;9.544;2023-05-10T08:21:09;15.80;99.90
1468;DHT22;727;48.892;9.544;2023-05-10T08:23:36;15.60;99.90
1468;DHT22;727;48.892;9.544;2023-05-10T08:26:03;15.50;99.90
1468;DHT22;727;48.892;9.544;2023-05-10T08:28:30;15.50;99.90
1468;DHT22;727;48.892;9.544;2023-05-10T08:30:59;15.30;99.90
1468;DHT22;727;48.892;9.544;2023-05-10T08:33:26;15.20;99.90
1468;DHT22;727;48.892;9.544;2023-05-10T08:35:53;15.20;99.90
1468;DHT22;727;48.892;9.544;2023-05-10T08:38:21;15.20;99.90
1468;DHT22;727;48.892;9.544;2023-05-10T08:40:54;15.20;99.90
1468;DHT22;727;48.892;9.544;2023-05-10T08:43:27;15.20;99.90
1468;DHT22;727;48.892;9.544;2023-05-10T08:45:55;15.30;99.90
1468;DHT22;727;48.892;9.544;2023-05-10T08:48:24;15.30;99.90
1468;DHT22;727;48.892;9.544;2023-05-10T08:50:53;15.40;99.90
1468;DHT22;727;48.892;9.544;2023-05-10T08:53:24;15.50;99.90
1468;DHT22;727;48.892;9.544;2023-05-10T08:55:52;15.50;99.90
1468;DHT22;727;48.892;9.544;2023-05-10T08:58:19;15.50;99.90
1468;DHT22;727;48.892;9.544;2023-05-10T09:00:49;15.60;99.90
1468;DHT22;727;48.892;9.544;2023-05-10T09:03:19;15.60;99.90
1468;DHT22;727;48.892;9.544;2023-05-10T09:05:46;15.60;99.90
1468;DHT22;727;48.892;9.544;2023-05-10T09:08:13;15.60;99.90
1468;DHT22;727;48.892;9.544;2023-05-10T09:10:44;15.80;99.90
1468;DHT22;727;48.892;9.544;2023-05-10T09:13:13;16.10;99.90
1468;DHT22;727;48.892;9.544;2023-05-10T09:15:47;16.50;99.90
1468;DHT22;727;48.892;9.544;2023-05-10T09:18:14;16.90;99.90
1468;DHT22;727;48.892;9.544;2023-05-10T09:20:41;16.90;99.90
1468;DHT22;727;48.892;9.544;2023-05-10T09:23:08;17.00;99.90
1468;DHT22;727;48.892;9.544;2023-05-10T09:25:35;17.10;99.90
1468;DHT22;727;48.892;9.544;2023-05-10T09:28:09;17.20;99.90
1468;DHT22;727;48.892;9.544;2023-05-10T09:30:37;17.20;99.90
1468;DHT22;727;48.892;9.544;2023-05-10T09:33:04;17.30;99.90
1468;DHT22;727;48.892;9.544;2023-05-10T09:35:32;17.40;99.90
1468;DHT22;727;48.892;9.544;2023-05-10T09:38:02;17.50;99.90
1468;DHT22;727;48.892;9.544;2023-05-10T09:40:29;17.50;99.90
1468;DHT22;727;48.892;9.544;2023-05-10T09:42:58;17.80;99.90
1468;DHT22;727;48.892;9.544;2023-05-10T09:45:30;17.90;99.90
1468;DHT22;727;48.892;9.544;2023-05-10T09:48:00;18.00;99.90
1468;DHT22;727;48.892;9.544;2023-05-10T09:50:28;18.10;99.90
1468;DHT22;727;48.892;9.544;2023-05-10T09:52:59;18.30;99.90
1468;DHT22;727;48.892;9.544;2023-05-10T09:55:39;18.40;99.90
1468;DHT22;727;48.892;9.544;2023-05-10T09:58:06;18.50;99.90
1468;DHT22;727;48.892;9.544;2023-05-10T10:00:38;18.40;99.90
1468;DHT22;727;48.892;9.544;2023-05-10T10:03:05;18.50;99.90
1468;DHT22;727;48.892;9.544;2023-05-10T10:05:33;18.50;99.90
1468;DHT22;727;48.892;9.544;2023-05-10T10:08:02;18.50;99.90
1468;DHT22;727;48.892;9.544;2023-05-10T10:10:31;18.40;99.90
1468;DHT22;727;48.892;9.544;2023-05-10T10:12:58;18.20;99.90
1468;DHT22;727;48.892;9.544;2023-05-10T10:15:25;18.00;99.80
1468;DHT22;727;48.892;9.544;2023-05-10T10:17:55;17.90;99.90
1468;DHT22;727;48.892;9.544;2023-05-10T10:20:22;18.00;99.90
1468;DHT22;727;48.892;9.544;2023-05-10T10:22:52;17.90;99.90
1468;DHT22;727;48.892;9.544;2023-05-10T10:25:21;18.10;99.90
1468;DHT22;727;48.892;9.544;2023-05-10T10:27:58;18.40;99.50
1468;DHT22;727;48.892;9.544;2023-05-10T10:30:31;18.80;99.00
1468;DHT22;727;48.892;9.544;2023-05-10T10:33:18;19.10;97.40
1468;DHT22;727;48.892;9.544;2023-05-10T10:35:50;19.40;96.60
1468;DHT22;727;48.892;9.544;2023-05-10T10:38:18;19.60;96.80
1468;DHT22;727;48.892;9.544;2023-05-10T10:40:45;19.90;96.60
1468;DHT22;727;48.892;9.544;2023-05-10T10:43:22;20.10;95.60
1468;DHT22;727;48.892;9.544;2023-05-10T10:46:11;20.10;95.50
1468;DHT22;727;48.892;9.544;2023-05-10T10:48:40;19.90;95.30
1468;DHT22;727;48.892;9.544;2023-05-10T10:51:07;19.90;95.30
1468;DHT22;727;48.892;9.544;2023-05-10T10:53:34;19.50;96.80
1468;DHT22;727;48.892;9.544;2023-05-10T10:56:08;19.40;96.10
1468;DHT22;727;48.892;9.544;2023-05-10T10:58:36;19.00;96.00
1468;DHT22;727;48.892;9.544;2023-05-10T11:01:13;18.70;96.90
1468;DHT22;727;48.892;9.544;2023-05-10T11:04:18;18.50;97.50
1468;DHT22;727;48.892;9.544;2023-05-10T11:06:45;18.30;99.00
1468;DHT22;727;48.892;9.544;2023-05-10T11:09:12;18.00;99.30
1468;DHT22;727;48.892;9.544;2023-05-10T11:11:49;17.80;99.90
1468;DHT22;727;48.892;9.544;2023-05-10T11:14:20;17.50;98.50
1468;DHT22;727;48.892;9.544;2023-05-10T11:16:47;17.30;98.20
1468;DHT22;727;48.892;9.544;2023-05-10T11:19:20;17.30;99.00
1468;DHT22;727;48.892;9.544;2023-05-10T11:21:48;17.20;98.60
1468;DHT22;727;48.892;9.544;2023-05-10T11:24:16;17.30;99.20
1468;DHT22;727;48.892;9.544;2023-05-10T11:26:44;17.40;99.50
1468;DHT22;727;48.892;9.544;2023-05-10T11:29:12;17.50;98.90
1468;DHT22;727;48.892;9.544;2023-05-10T11:31:42;17.70;98.90
1468;DHT22;727;48.892;9.544;2023-05-10T11:34:10;17.70;98.00
1468;DHT22;727;48.892;9.544;2023-05-10T11:36:40;17.90;98.90
1468;DHT22;727;48.892;9.544;2023-05-10T11:39:07;17.90;99.00
1468;DHT22;727;48.892;9.544;2023-05-10T11:41:35;18.10;98.10
1468;DHT22;727;48.892;9.544;2023-05-10T11:44:02;18.00;99.40
1468;DHT22;727;48.892;9.544;2023-05-10T11:46:29;17.90;98.40
1468;DHT22;727;48.892;9.544;2023-05-10T11:48:57;17.80;98.50
1468;DHT22;727;48.892;9.544;2023-05-10T11:51:27;17.70;98.10
1468;DHT22;727;48.892;9.544;2023-05-10T11:53:56;17.30;99.50
1468;DHT22;727;48.892;9.544;2023-05-10T11:56:23;17.00;99.90
1468;DHT22;727;48.892;9.544;2023-05-10T11:58:56;16.70;99.90
1468;DHT22;727;48.892;9.544;2023-05-10T12:01:23;16.50;99.90
1468;DHT22;727;48.892;9.544;2023-05-10T12:03:52;16.50;99.90
1468;DHT22;727;48.892;9.544;2023-05-10T12:06:20;16.70;99.90
1468;DHT22;727;48.892;9.544;2023-05-10T12:08:48;16.90;99.90
1468;DHT22;727;48.892;9.544;2023-05-10T12:11:19;17.20;99.90
1468;DHT22;727;48.892;9.544;2023-05-10T12:13:47;17.40;99.20
1468;DHT22;727;48.892;9.544;2023-05-10T12:16:16;17.70;99.20
1468;DHT22;727;48.892;9.544;2023-05-10T12:18:43;18.00;98.10
1468;DHT22;727;48.892;9.544;2023-05-10T12:21:11;18.20;98.90
1468;DHT22;727;48.892;9.544;2023-05-10T12:23:39;18.40;97.80
1468;DHT22;727;48.892;9.544;2023-05-10T12:26:07;18.50;97.90
1468;DHT22;727;48.892;9.544;2023-05-10T12:28:37;18.50;97.70
1468;DHT22;727;48.892;9.544;2023-05-10T12:31:05;18.30;96.60
1468;DHT22;727;48.892;9.544;2023-05-10T12:33:36;18.30;97.70
1468;DHT22;727;48.892;9.544;2023-05-10T12:36:05;18.30;97.30
1468;DHT22;727;48.892;9.544;2023-05-10T12:38:33;18.30;97.70
1468;DHT22;727;48.892;9.544;2023-05-10T12:41:02;17.90;96.80
1468;DHT22;727;48.892;9.544;2023-05-10T12:43:29;17.90;97.20
1468;DHT22;727;48.892;9.544;2023-05-10T12:45:58;17.70;97.50
1468;DHT22;727;48.892;9.544;2023-05-10T12:48:25;17.60;97.80
1468;DHT22;727;48.892;9.544;2023-05-10T12:50:54;17.50;98.00
1468;DHT22;727;48.892;9.544;2023-05-10T12:53:21;17.50;97.70
1468;DHT22;727;48.892;9.544;2023-05-10T12:55:47;17.60;97.10
1468;DHT22;727;48.892;9.544;2023-05-10T12:58:14;17.80;97.60
1468;DHT22;727;48.892;9.544;2023-05-10T13:00:41;18.00;96.40
1468;DHT22;727;48.892;9.544;2023-05-10T13:03:10;18.20;96.10
1468;DHT22;727;48.892;9.544;2023-05-10T13:05:37;18.30;95.20
1468;DHT22;727;48.892;9.544;2023-05-10T13:08:04;18.30;95.40
1468;DHT22;727;48.892;9.544;2023-05-10T13:10:31;18.30;95.90
1468;DHT22;727;48.892;9.544;2023-05-10T13:12:58;18.40;95.90
1468;DHT22;727;48.892;9.544;2023-05-10T13:15:26;18.30;94.60
1468;DHT22;727;48.892;9.544;2023-05-10T13:17:53;18.20;94.40
1468;DHT22;727;48.892;9.544;2023-05-10T13:20:22;17.90;93.50
1468;DHT22;727;48.892;9.544;2023-05-10T13:22:49;17.70;94.20
1468;DHT22;727;48.892;9.544;2023-05-10T13:25:16;17.70;93.80
1468;DHT22;727;48.892;9.544;2023-05-10T13:27:42;17.70;92.70
1468;DHT22;727;48.892;9.544;2023-05-10T13:30:10;17.60;94.30
1468;DHT22;727;48.892;9.544;2023-05-10T13:32:37;17.70;92.90
1468;DHT22;727;48.892;9.544;2023-05-10T13:35:05;17.80;93.30
1468;DHT22;727;48.892;9.544;2023-05-10T13:37:34;17.80;91.50
1468;DHT22;727;48.892;9.544;2023-05-10T13:40:03;17.60;92.80
1468;DHT22;727;48.892;9.544;2023-05-10T13:42:30;17.50;92.00
1468;DHT22;727;48.892;9.544;2023-05-10T13:44:59;17.60;92.40
1468;DHT22;727;48.892;9.544;2023-05-10T13:47:26;17.70;92.30
1468;DHT22;727;48.892;9.544;2023-05-10T13:49:53;17.80;91.60
1468;DHT22;727;48.892;9.544;2023-05-10T13:52:23;18.00;92.00
1468;DHT22;727;48.892;9.544;2023-05-10T13:54:52;18.10;92.00
1468;DHT22;727;48.892;9.544;2023-05-10T13:57:20;18.20;92.50
1468;DHT22;727;48.892;9.544;2023-05-10T13:59:47;18.30;93.80
1468;DHT22;727;48.892;9.544;2023-05-10T14:02:13;18.30;91.40
1468;DHT22;727;48.892;9.544;2023-05-10T14:04:40;18.30;92.30
1468;DHT22;727;48.892;9.544;2023-05-10T14:07:07;18.40;91.80
1468;DHT22;727;48.892;9.544;2023-05-10T14:09:36;18.30;92.00
1468;DHT22;727;48.892;9.544;2023-05-10T14:12:05;18.20;92.00
1468;DHT22;727;48.892;9.544;2023-05-10T14:14:32;18.10;93.20
1468;DHT22;727;48.892;9.544;2023-05-10T14:16:59;18.20;93.20
1468;DHT22;727;48.892;9.544;2023-05-10T14:19:26;18.10;92.90
1468;DHT22;727;48.892;9.544;2023-05-10T14:21:56;17.70;92.30
1468;DHT22;727;48.892;9.544;2023-05-10T14:24:22;17.60;93.10
1468;DHT22;727;48.892;9.544;2023-05-10T14:26:51;17.50;93.50
1468;DHT22;727;48.892;9.544;2023-05-10T14:29:21;17.50;94.30
1468;DHT22;727;48.892;9.544;2023-05-10T14:31:47;17.50;94.60
1468;DHT22;727;48.892;9.544;2023-05-10T14:34:14;17.50;94.50
1468;DHT22;727;48.892;9.544;2023-05-10T14:36:41;17.40;94.30
1468;DHT22;727;48.892;9.544;2023-05-10T14:39:08;17.50;93.40
1468;DHT22;727;48.892;9.544;2023-05-10T14:41:35;17.40;94.30
1468;DHT22;727;48.892;9.544;2023-05-10T14:44:02;17.50;93.60
1468;DHT22;727;48.892;9.544;2023-05-10T14:46:32;17.50;94.20
1468;DHT22;727;48.892;9.544;2023-05-10T14:49:00;17.60;93.70
1468;DHT22;727;48.892;9.544;2023-05-10T14:51:27;17.60;93.40
1468;DHT22;727;48.892;9.544;2023-05-10T14:54:03;17.70;92.00
1468;DHT22;727;48.892;9.544;2023-05-10T14:56:30;17.50;92.70
1468;DHT22;727;48.892;9.544;2023-05-10T14:58:59;17.70;94.30
1468;DHT22;727;48.892;9.544;2023-05-10T15:01:26;17.70;93.10
1468;DHT22;727;48.892;9.544;2023-05-10T15:04:04;17.80;94.00
1468;DHT22;727;48.892;9.544;2023-05-10T15:06:34;17.90;93.70
1468;DHT22;727;48.892;9.544;2023-05-10T15:09:02;17.90;92.60
1468;DHT22;727;48.892;9.544;2023-05-10T15:11:38;17.80;93.50
1468;DHT22;727;48.892;9.544;2023-05-10T15:14:05;17.90;94.20
1468;DHT22;727;48.892;9.544;2023-05-10T15:16:32;17.90;93.80
1468;DHT22;727;48.892;9.544;2023-05-10T15:18:59;18.00;92.90
1468;DHT22;727;48.892;9.544;2023-05-10T15:21:27;18.00;94.10
1468;DHT22;727;48.892;9.544;2023-05-10T15:23:54;18.00;92.70
1468;DHT22;727;48.892;9.544;2023-05-10T15:26:24;18.10;93.40
1468;DHT22;727;48.892;9.544;2023-05-10T15:28:53;18.10;94.60
1468;DHT22;727;48.892;9.544;2023-05-10T15:31:24;18.10;94.80
1468;DHT22;727;48.892;9.544;2023-05-10T15:33:57;18.20;93.10
1468;DHT22;727;48.892;9.544;2023-05-10T15:36:24;18.00;92.90
1468;DHT22;727;48.892;9.544;2023-05-10T15:38:53;18.00;93.20
1468;DHT22;727;48.892;9.544;2023-05-10T15:41:21;17.90;93.20
1468;DHT22;727;48.892;9.544;2023-05-10T15:43:51;17.90;93.60
1468;DHT22;727;48.892;9.544;2023-05-10T15:46:21;17.90;92.60
1468;DHT22;727;48.892;9.544;2023-05-10T15:48:50;17.90;93.30
1468;DHT22;727;48.892;9.544;2023-05-10T15:51:17;18.00;93.30
1468;DHT22;727;48.892;9.544;2023-05-10T15:53:44;18.00;93.60
1468;DHT22;727;48.892;9.544;2023-05-10T15:56:13;17.90;94.40
1468;DHT22;727;48.892;9.544;2023-05-10T15:58:41;17.90;92.80
1468;DHT22;727;48.892;9.544;2023-05-10T16:01:22;17.90;93.20
1468;DHT22;727;48.892;9.544;2023-05-10T16:03:55;17.90;92.90
1468;DHT22;727;48.892;9.544;2023-05-10T16:06:22;17.80;94.00
1468;DHT22;727;48.892;9.544;2023-05-10T16:08:49;17.70;94.50
1468;DHT22;727;48.892;9.544;2023-05-10T16:11:19;17.70;94.30
1468;DHT22;727;48.892;9.544;2023-05-10T16:13:47;17.60;94.50
1468;DHT22;727;48.892;9.544;2023-05-10T16:16:16;17.60;96.40
1468;DHT22;727;48.892;9.544;2023-05-10T16:18:46;17.60;97.00
1468;DHT22;727;48.892;9.544;2023-05-10T16:21:13;17.60;96.00
1468;DHT22;727;48.892;9.544;2023-05-10T16:23:40;17.50;95.60
1468;DHT22;727;48.892;9.544;2023-05-10T16:26:07;17.40;95.10
1468;DHT22;727;48.892;9.544;2023-05-10T16:28:36;17.40;94.40
1468;DHT22;727;48.892;9.544;2023-05-10T16:31:06;17.30;95.10
1468;DHT22;727;48.892;9.544;2023-05-10T16:33:33;17.20;95.50